N770XJ KSEZ-KTEX
Flight info
| Callsign | N770XJ |
|---|---|
| Flight time | 0h 41m |
| Altitude | 41000 |
| Route | YOOPR CEZ HAVWU ETL |
| Aircraft | C750/M-SBDE3FGHRWXY/S |
Departure
| Time | 2026-04-25 22:01 |
|---|---|
| Airport | Sedona Airport (KSEZ) |
Arrival
| Time | 2026-04-25 22:43 |
|---|---|
| Airport | Telluride Regional Airport (KTEX) |
| Time | Latitude | Longitude | Altitude | Speed | Heading |
|---|---|---|---|---|---|
| 2026-04-25 21:39 | 34.84861 | -111.79186 | 4780 ft | 0 kts | 319° |
| 2026-04-25 21:54 | 34.84863 | -111.79199 | 4780 ft | 5 kts | 266° |
| 2026-04-25 21:54 | 34.84861 | -111.79206 | 4780 ft | 6 kts | 256° |
| 2026-04-25 21:54 | 34.84853 | -111.79221 | 4778 ft | 5 kts | 224° |
| 2026-04-25 21:54 | 34.84866 | -111.79255 | 4779 ft | 1 kts | 359° |
| 2026-04-25 21:55 | 34.84887 | -111.79237 | 4783 ft | 9 kts | 38° |
| 2026-04-25 21:55 | 34.84911 | -111.79209 | 4786 ft | 1 kts | 45° |
| 2026-04-25 21:55 | 34.84912 | -111.79208 | 4786 ft | 1 kts | 45° |
| 2026-04-25 21:56 | 34.84915 | -111.79203 | 4786 ft | 2 kts | 45° |
| 2026-04-25 21:56 | 34.84917 | -111.79201 | 4786 ft | 0 kts | 45° |
| 2026-04-25 21:56 | 34.84934 | -111.79180 | 4788 ft | 8 kts | 46° |
| 2026-04-25 21:57 | 34.84922 | -111.79124 | 4788 ft | 8 kts | 136° |
| 2026-04-25 21:57 | 34.84872 | -111.79067 | 4786 ft | 14 kts | 136° |
| 2026-04-25 21:57 | 34.84844 | -111.78982 | 4781 ft | 5 kts | 28° |
| 2026-04-25 21:57 | 34.84866 | -111.78957 | 4783 ft | 11 kts | 47° |
| 2026-04-25 21:58 | 34.84888 | -111.78929 | 4785 ft | 11 kts | 45° |
| 2026-04-25 21:59 | 34.84943 | -111.78860 | 4788 ft | 13 kts | 46° |
| 2026-04-25 21:59 | 34.84994 | -111.78797 | 4792 ft | 7 kts | 45° |
| 2026-04-25 21:59 | 34.85013 | -111.78774 | 4794 ft | 0 kts | 45° |
| 2026-04-25 22:00 | 34.85148 | -111.78603 | 4820 ft | 23 kts | 46° |
| 2026-04-25 22:00 | 34.85240 | -111.78491 | 4825 ft | 15 kts | 46° |
| 2026-04-25 22:00 | 34.85316 | -111.78396 | 4831 ft | 14 kts | 46° |
| 2026-04-25 22:00 | 34.85357 | -111.78316 | 4832 ft | 10 kts | 106° |
| 2026-04-25 22:01 | 34.85316 | -111.78290 | 4832 ft | 12 kts | 190° |
| 2026-04-25 22:01 | 34.84933 | -111.78750 | 4793 ft | 125 kts | 225° |
| 2026-04-25 22:01 | 34.84358 | -111.79485 | 5235 ft | 140 kts | 221° |
| 2026-04-25 22:01 | 34.83914 | -111.80068 | 5741 ft | 147 kts | 223° |
| 2026-04-25 22:02 | 34.82799 | -111.81395 | 6443 ft | 176 kts | 220° |
| 2026-04-25 22:02 | 34.81968 | -111.82436 | 7065 ft | 192 kts | 232° |
| 2026-04-25 22:02 | 34.81471 | -111.84079 | 7462 ft | 221 kts | 256° |
| 2026-04-25 22:02 | 34.81730 | -111.86160 | 8067 ft | 254 kts | 288° |
| 2026-04-25 22:03 | 34.82884 | -111.87746 | 8330 ft | 293 kts | 322° |
| 2026-04-25 22:03 | 34.84881 | -111.88366 | 9206 ft | 304 kts | 358° |
| 2026-04-25 22:03 | 34.86938 | -111.87568 | 10014 ft | 315 kts | 30° |
| 2026-04-25 22:03 | 34.88429 | -111.85578 | 10633 ft | 320 kts | 58° |
| 2026-04-25 22:04 | 34.89618 | -111.83293 | 11233 ft | 326 kts | 55° |
| 2026-04-25 22:04 | 34.91001 | -111.80969 | 11607 ft | 351 kts | 53° |
| 2026-04-25 22:04 | 34.92469 | -111.78418 | 11887 ft | 377 kts | 56° |
| 2026-04-25 22:04 | 34.93915 | -111.75709 | 12057 ft | 402 kts | 57° |
| 2026-04-25 22:05 | 34.95464 | -111.72844 | 12790 ft | 406 kts | 56° |
| 2026-04-25 22:05 | 34.97070 | -111.69995 | 13517 ft | 412 kts | 54° |
| 2026-04-25 22:05 | 34.98700 | -111.67089 | 14239 ft | 418 kts | 55° |
| 2026-04-25 22:05 | 35.00329 | -111.64109 | 14976 ft | 422 kts | 55° |
| 2026-04-25 22:06 | 35.01983 | -111.61080 | 15805 ft | 421 kts | 55° |
| 2026-04-25 22:06 | 35.03621 | -111.58120 | 16460 ft | 425 kts | 54° |
| 2026-04-25 22:06 | 35.05285 | -111.55117 | 17016 ft | 428 kts | 55° |
| 2026-04-25 22:06 | 35.06939 | -111.52102 | 17753 ft | 432 kts | 55° |
| 2026-04-25 22:07 | 35.08624 | -111.49016 | 18423 ft | 436 kts | 55° |
| 2026-04-25 22:07 | 35.09769 | -111.46929 | 18887 ft | 438 kts | 54° |
| 2026-04-25 22:07 | 35.12048 | -111.42787 | 19756 ft | 444 kts | 54° |
| 2026-04-25 22:07 | 35.13779 | -111.39633 | 20413 ft | 448 kts | 54° |
| 2026-04-25 22:08 | 35.15534 | -111.36426 | 21071 ft | 454 kts | 54° |
| 2026-04-25 22:08 | 35.17290 | -111.33206 | 21717 ft | 459 kts | 54° |
| 2026-04-25 22:08 | 35.19080 | -111.29929 | 22354 ft | 465 kts | 54° |
| 2026-04-25 22:08 | 35.20858 | -111.26678 | 22980 ft | 470 kts | 54° |
| 2026-04-25 22:09 | 35.22710 | -111.23279 | 23562 ft | 475 kts | 54° |
| 2026-04-25 22:09 | 35.24568 | -111.19861 | 24093 ft | 480 kts | 54° |
| 2026-04-25 22:09 | 35.26428 | -111.16447 | 24634 ft | 485 kts | 54° |
| 2026-04-25 22:09 | 35.28320 | -111.12976 | 25194 ft | 490 kts | 55° |
| 2026-04-25 22:10 | 35.30213 | -111.09491 | 25702 ft | 495 kts | 55° |
| 2026-04-25 22:10 | 35.31481 | -111.07157 | 26054 ft | 498 kts | 55° |
| 2026-04-25 22:10 | 35.34056 | -111.02396 | 26727 ft | 505 kts | 55° |
| 2026-04-25 22:10 | 35.35373 | -110.99965 | 27043 ft | 508 kts | 55° |
| 2026-04-25 22:11 | 35.37345 | -110.96340 | 27439 ft | 516 kts | 55° |
| 2026-04-25 22:11 | 35.39340 | -110.92650 | 27831 ft | 522 kts | 56° |
| 2026-04-25 22:11 | 35.41347 | -110.88907 | 28364 ft | 526 kts | 56° |
| 2026-04-25 22:11 | 35.43378 | -110.85126 | 28849 ft | 531 kts | 56° |
| 2026-04-25 22:12 | 35.45454 | -110.81291 | 29359 ft | 536 kts | 56° |
| 2026-04-25 22:12 | 35.47525 | -110.77467 | 29891 ft | 539 kts | 56° |
| 2026-04-25 22:12 | 35.49623 | -110.73558 | 30351 ft | 543 kts | 56° |
| 2026-04-25 22:12 | 35.51004 | -110.70973 | 30610 ft | 546 kts | 56° |
| 2026-04-25 22:13 | 35.53817 | -110.65728 | 31423 ft | 545 kts | 55° |
| 2026-04-25 22:13 | 35.55887 | -110.61874 | 32053 ft | 544 kts | 55° |
| 2026-04-25 22:13 | 35.57996 | -110.57937 | 32683 ft | 544 kts | 54° |
| 2026-04-25 22:13 | 35.60044 | -110.54098 | 33302 ft | 544 kts | 54° |
| 2026-04-25 22:14 | 35.62117 | -110.50218 | 33915 ft | 543 kts | 54° |
| 2026-04-25 22:14 | 35.64206 | -110.46327 | 34410 ft | 543 kts | 53° |
| 2026-04-25 22:14 | 35.66541 | -110.42692 | 34913 ft | 538 kts | 43° |
| 2026-04-25 22:14 | 35.69228 | -110.39531 | 35468 ft | 532 kts | 35° |
| 2026-04-25 22:15 | 35.72101 | -110.36660 | 36104 ft | 529 kts | 32° |
| 2026-04-25 22:15 | 35.75000 | -110.33874 | 36695 ft | 529 kts | 32° |
| 2026-04-25 22:15 | 35.77804 | -110.30911 | 37274 ft | 532 kts | 36° |
| 2026-04-25 22:16 | 35.83332 | -110.24870 | 38449 ft | 529 kts | 33° |
| 2026-04-25 22:16 | 35.86209 | -110.21960 | 38959 ft | 528 kts | 32° |
| 2026-04-25 22:16 | 35.88985 | -110.19070 | 39447 ft | 528 kts | 34° |
| 2026-04-25 22:16 | 35.91748 | -110.16072 | 39939 ft | 528 kts | 34° |
| 2026-04-25 22:17 | 35.94514 | -110.13099 | 40419 ft | 526 kts | 33° |
| 2026-04-25 22:17 | 35.97315 | -110.10174 | 40751 ft | 529 kts | 33° |
| 2026-04-25 22:17 | 36.00162 | -110.07204 | 40750 ft | 540 kts | 33° |
| 2026-04-25 22:17 | 36.03043 | -110.04126 | 40729 ft | 551 kts | 34° |
| 2026-04-25 22:18 | 36.05959 | -110.00987 | 40735 ft | 561 kts | 34° |
| 2026-04-25 22:18 | 36.11986 | -109.94607 | 40721 ft | 578 kts | 34° |
| 2026-04-25 22:19 | 36.18189 | -109.87974 | 40718 ft | 589 kts | 34° |
| 2026-04-25 22:19 | 36.24382 | -109.81359 | 40700 ft | 586 kts | 34° |
| 2026-04-25 22:20 | 36.30538 | -109.74765 | 40696 ft | 585 kts | 35° |
| 2026-04-25 22:20 | 36.36707 | -109.68143 | 40685 ft | 586 kts | 34° |
| 2026-04-25 22:21 | 36.42877 | -109.61506 | 40689 ft | 586 kts | 35° |
| 2026-04-25 22:21 | 36.49046 | -109.54853 | 40686 ft | 586 kts | 35° |
| 2026-04-25 22:22 | 36.55198 | -109.48207 | 40705 ft | 586 kts | 35° |
| 2026-04-25 22:22 | 36.61344 | -109.41544 | 40700 ft | 583 kts | 35° |
| 2026-04-25 22:23 | 36.67446 | -109.34928 | 40700 ft | 581 kts | 35° |
| 2026-04-25 22:23 | 36.73543 | -109.28297 | 40694 ft | 582 kts | 35° |
| 2026-04-25 22:24 | 36.79614 | -109.21680 | 40683 ft | 583 kts | 35° |
| 2026-04-25 22:24 | 36.85722 | -109.15004 | 40682 ft | 583 kts | 35° |
| 2026-04-25 22:25 | 36.91851 | -109.08295 | 40683 ft | 582 kts | 35° |
| 2026-04-25 22:25 | 36.97951 | -109.01602 | 40686 ft | 582 kts | 36° |
| 2026-04-25 22:26 | 37.04047 | -108.94896 | 40691 ft | 580 kts | 36° |
| 2026-04-25 22:26 | 37.06992 | -108.91634 | 40669 ft | 550 kts | 36° |
| 2026-04-25 22:26 | 37.09796 | -108.88526 | 40574 ft | 524 kts | 35° |
| 2026-04-25 22:26 | 37.12511 | -108.85545 | 39777 ft | 516 kts | 34° |
| 2026-04-25 22:27 | 37.15220 | -108.82582 | 38670 ft | 518 kts | 35° |
| 2026-04-25 22:27 | 37.17938 | -108.79576 | 37311 ft | 521 kts | 35° |
| 2026-04-25 22:27 | 37.20656 | -108.76545 | 35902 ft | 524 kts | 36° |
| 2026-04-25 22:27 | 37.23383 | -108.73516 | 34596 ft | 523 kts | 36° |
| 2026-04-25 22:28 | 37.26107 | -108.70503 | 33167 ft | 523 kts | 36° |
| 2026-04-25 22:28 | 37.28839 | -108.67479 | 31623 ft | 524 kts | 36° |
| 2026-04-25 22:28 | 37.31579 | -108.64431 | 29808 ft | 527 kts | 36° |
| 2026-04-25 22:28 | 37.34313 | -108.61377 | 28334 ft | 519 kts | 37° |
| 2026-04-25 22:29 | 37.37020 | -108.58505 | 27012 ft | 499 kts | 31° |
| 2026-04-25 22:29 | 37.40049 | -108.56488 | 25685 ft | 476 kts | 15° |
| 2026-04-25 22:29 | 37.43164 | -108.55436 | 24467 ft | 452 kts | 2° |
| 2026-04-25 22:30 | 37.49252 | -108.54397 | 21789 ft | 433 kts | 2° |
| 2026-04-25 22:30 | 37.52198 | -108.53888 | 20434 ft | 424 kts | 2° |
| 2026-04-25 22:30 | 37.55099 | -108.53383 | 19121 ft | 416 kts | 4° |
| 2026-04-25 22:30 | 37.56995 | -108.53046 | 18289 ft | 412 kts | 5° |
| 2026-04-25 22:31 | 37.59869 | -108.52545 | 17178 ft | 420 kts | 5° |
| 2026-04-25 22:31 | 37.62785 | -108.52052 | 16747 ft | 407 kts | 5° |
| 2026-04-25 22:31 | 37.65560 | -108.51566 | 16740 ft | 402 kts | 5° |
| 2026-04-25 22:31 | 37.68343 | -108.51080 | 16742 ft | 404 kts | 4° |
| 2026-04-25 22:32 | 37.71076 | -108.50600 | 16175 ft | 390 kts | 5° |
| 2026-04-25 22:32 | 37.73861 | -108.50115 | 15730 ft | 404 kts | 5° |
| 2026-04-25 22:32 | 37.76539 | -108.49641 | 15726 ft | 372 kts | 5° |
| 2026-04-25 22:32 | 37.78995 | -108.49204 | 15575 ft | 340 kts | 4° |
| 2026-04-25 22:33 | 37.81354 | -108.48798 | 14251 ft | 350 kts | 5° |
| 2026-04-25 22:33 | 37.83792 | -108.48384 | 13244 ft | 352 kts | 5° |
| 2026-04-25 22:33 | 37.86193 | -108.47953 | 12330 ft | 346 kts | 6° |
| 2026-04-25 22:33 | 37.88622 | -108.47523 | 11745 ft | 355 kts | 5° |
| 2026-04-25 22:34 | 37.91080 | -108.47101 | 11737 ft | 354 kts | 5° |
| 2026-04-25 22:34 | 37.93569 | -108.46655 | 11700 ft | 357 kts | 6° |
| 2026-04-25 22:34 | 37.95934 | -108.45553 | 11674 ft | 362 kts | 30° |
| 2026-04-25 22:34 | 37.97831 | -108.43395 | 11685 ft | 364 kts | 53° |
| 2026-04-25 22:35 | 37.99031 | -108.40611 | 11745 ft | 362 kts | 67° |
| 2026-04-25 22:35 | 38.00034 | -108.37638 | 11799 ft | 364 kts | 69° |
| 2026-04-25 22:35 | 38.00918 | -108.34975 | 11726 ft | 300 kts | 69° |
| 2026-04-25 22:35 | 38.01738 | -108.32587 | 11704 ft | 283 kts | 68° |
| 2026-04-25 22:36 | 38.02487 | -108.30406 | 11712 ft | 253 kts | 69° |
| 2026-04-25 22:36 | 38.03148 | -108.28462 | 11704 ft | 229 kts | 69° |
| 2026-04-25 22:36 | 38.03761 | -108.26649 | 11711 ft | 219 kts | 69° |
| 2026-04-25 22:36 | 38.04365 | -108.24872 | 11717 ft | 220 kts | 69° |
| 2026-04-25 22:37 | 38.04781 | -108.23007 | 11730 ft | 221 kts | 95° |
| 2026-04-25 22:37 | 38.04240 | -108.21295 | 11677 ft | 205 kts | 133° |
| 2026-04-25 22:37 | 38.03203 | -108.20192 | 11219 ft | 179 kts | 155° |
| 2026-04-25 22:37 | 38.02198 | -108.19406 | 10645 ft | 163 kts | 159° |
| 2026-04-25 22:38 | 38.01287 | -108.18607 | 10335 ft | 158 kts | 150° |
| 2026-04-25 22:38 | 38.00494 | -108.17684 | 10147 ft | 152 kts | 146° |
| 2026-04-25 22:38 | 37.99814 | -108.16629 | 9974 ft | 155 kts | 136° |
| 2026-04-25 22:38 | 37.99405 | -108.15351 | 10039 ft | 172 kts | 100° |
| 2026-04-25 22:39 | 37.99331 | -108.13853 | 10135 ft | 165 kts | 108° |
| 2026-04-25 22:39 | 37.99081 | -108.12432 | 10264 ft | 166 kts | 109° |
| 2026-04-25 22:39 | 37.98822 | -108.10967 | 10304 ft | 173 kts | 110° |
| 2026-04-25 22:39 | 37.98529 | -108.09459 | 10297 ft | 177 kts | 113° |
| 2026-04-25 22:40 | 37.98210 | -108.07955 | 10259 ft | 176 kts | 115° |
| 2026-04-25 22:40 | 37.97944 | -108.06455 | 10183 ft | 174 kts | 109° |
| 2026-04-25 22:40 | 37.97714 | -108.04953 | 10132 ft | 175 kts | 111° |
| 2026-04-25 22:40 | 37.97425 | -108.03463 | 10167 ft | 173 kts | 112° |
| 2026-04-25 22:41 | 37.97100 | -108.01985 | 10194 ft | 178 kts | 114° |
| 2026-04-25 22:41 | 37.96790 | -108.00479 | 10398 ft | 176 kts | 113° |
| 2026-04-25 22:41 | 37.96477 | -107.98970 | 10132 ft | 177 kts | 115° |
| 2026-04-25 22:41 | 37.96175 | -107.97472 | 9998 ft | 177 kts | 107° |
| 2026-04-25 22:42 | 37.96137 | -107.95894 | 9847 ft | 180 kts | 95° |
| 2026-04-25 22:42 | 37.96055 | -107.94313 | 9548 ft | 173 kts | 100° |
| 2026-04-25 22:42 | 37.95807 | -107.92838 | 9253 ft | 175 kts | 111° |
| 2026-04-25 22:42 | 37.95477 | -107.91321 | 9033 ft | 167 kts | 109° |
| 2026-04-25 22:43 | 37.95217 | -107.90091 | 9054 ft | 106 kts | 105° |
| 2026-04-25 22:43 | 37.95089 | -107.89548 | 9073 ft | 26 kts | 125° |
| 2026-04-25 22:43 | 37.95080 | -107.89515 | 9073 ft | 0 kts | 73° |
| 2026-04-25 22:43 | 37.95082 | -107.89513 | 9073 ft | 0 kts | 58° |
| 2026-04-25 22:44 | 37.95107 | -107.89537 | 9073 ft | 17 kts | 273° |
| 2026-04-25 22:44 | 37.95149 | -107.89707 | 9071 ft | 3 kts | 15° |
| 2026-04-25 22:44 | 37.95207 | -107.89670 | 9073 ft | 16 kts | 8° |
| 2026-04-25 22:44 | 37.95261 | -107.89771 | 9068 ft | 17 kts | 282° |
| 2026-04-25 22:45 | 37.95294 | -107.89920 | 9061 ft | 18 kts | 285° |
| 2026-04-25 22:45 | 37.95328 | -107.90081 | 9057 ft | 19 kts | 285° |
| 2026-04-25 22:45 | 37.95361 | -107.90237 | 9056 ft | 15 kts | 290° |
| 2026-04-25 22:45 | 37.95408 | -107.90272 | 9054 ft | 1 kts | 282° |
| 2026-04-25 22:46 | 37.95410 | -107.90280 | 9054 ft | 3 kts | 286° |
| 2026-04-25 22:46 | 37.95411 | -107.90283 | 9054 ft | 0 kts | 286° |